createdAt,value
2019-01-27T00:00:22.762Z,991.82
2019-01-27T00:01:22.762Z,991.84
2019-01-27T00:02:22.730Z,991.81
2019-01-27T00:03:22.726Z,991.90
2019-01-27T00:04:22.719Z,991.84
2019-01-27T00:05:22.696Z,991.89
2019-01-27T00:06:22.698Z,991.89
2019-01-27T00:07:22.679Z,991.87
2019-01-27T00:08:22.678Z,991.88
2019-01-27T00:09:22.650Z,991.89
2019-01-27T00:10:22.640Z,991.85
2019-01-27T00:11:22.629Z,991.87
2019-01-27T00:12:22.623Z,991.78
2019-01-27T00:13:22.632Z,991.81
2019-01-27T00:14:22.606Z,991.80
2019-01-27T00:15:22.589Z,991.85
2019-01-27T00:16:22.578Z,991.81
2019-01-27T00:17:22.570Z,991.75
2019-01-27T00:18:22.582Z,991.75
2019-01-27T00:19:22.548Z,991.78
2019-01-27T00:20:22.540Z,991.82
2019-01-27T00:21:22.526Z,991.80
2019-01-27T00:22:22.522Z,991.77
2019-01-27T00:23:22.516Z,991.75
2019-01-27T00:24:22.498Z,991.72
2019-01-27T00:25:22.475Z,991.71
2019-01-27T00:26:23.066Z,991.66
2019-01-27T00:27:22.459Z,991.71
2019-01-27T00:28:23.568Z,991.72
2019-01-27T00:29:22.453Z,991.69
2019-01-27T00:30:22.435Z,991.68
2019-01-27T00:31:22.433Z,991.67
2019-01-27T00:32:22.411Z,991.57
2019-01-27T00:33:22.430Z,991.61
2019-01-27T00:34:22.399Z,991.47
2019-01-27T00:35:22.391Z,991.60
2019-01-27T00:36:22.387Z,991.54
2019-01-27T00:37:22.353Z,991.58
2019-01-27T00:38:22.348Z,991.54
2019-01-27T00:39:22.348Z,991.50
2019-01-27T00:40:22.327Z,991.54
2019-01-27T00:41:22.321Z,991.54
2019-01-27T00:42:22.304Z,991.53
2019-01-27T00:43:22.291Z,991.48
2019-01-27T00:44:22.313Z,991.53
2019-01-27T00:45:22.312Z,991.47
2019-01-27T00:46:22.268Z,991.48
2019-01-27T00:47:22.253Z,991.52
2019-01-27T00:48:22.249Z,991.42
2019-01-27T00:49:22.252Z,991.48
2019-01-27T00:50:22.224Z,991.42
2019-01-27T00:51:22.234Z,991.38
2019-01-27T00:52:22.211Z,991.36
2019-01-27T00:53:22.210Z,991.39
2019-01-27T00:54:22.204Z,991.42
2019-01-27T00:55:22.175Z,991.39
2019-01-27T00:56:22.180Z,991.37
2019-01-27T00:57:22.172Z,991.28
2019-01-27T00:58:22.145Z,991.36
2019-01-27T00:59:22.151Z,991.28
2019-01-27T01:00:22.115Z,991.30
2019-01-27T01:01:22.115Z,991.27
2019-01-27T01:02:22.096Z,991.29
2019-01-27T01:03:22.090Z,991.24
2019-01-27T01:04:22.105Z,991.29
2019-01-27T01:05:22.074Z,991.27
2019-01-27T01:06:22.050Z,991.24
2019-01-27T01:07:22.047Z,991.22
2019-01-27T01:08:22.029Z,991.22
2019-01-27T01:09:22.042Z,991.19
2019-01-27T01:10:22.025Z,991.18
2019-01-27T01:11:22.001Z,991.23
2019-01-27T01:12:21.987Z,991.19
2019-01-27T01:13:21.985Z,991.13
2019-01-27T01:14:21.985Z,991.11
2019-01-27T01:15:21.964Z,991.11
2019-01-27T01:16:21.952Z,991.10
2019-01-27T01:17:21.937Z,991.06
2019-01-27T01:18:21.926Z,991.05
2019-01-27T01:19:21.952Z,991.06
2019-01-27T01:20:21.910Z,991.02
2019-01-27T01:21:21.899Z,991.06
2019-01-27T01:22:21.900Z,991.01
2019-01-27T01:23:21.872Z,991.02
2019-01-27T01:24:21.885Z,991.01
2019-01-27T01:25:21.856Z,991.04
2019-01-27T01:26:21.841Z,990.86
2019-01-27T01:27:21.839Z,990.96
2019-01-27T01:28:21.821Z,990.92
2019-01-27T01:29:21.834Z,990.99
2019-01-27T01:30:21.803Z,990.98
2019-01-27T01:31:21.799Z,991.01
2019-01-27T01:32:21.780Z,990.90
2019-01-27T01:33:21.777Z,990.91
2019-01-27T01:34:21.784Z,990.88
2019-01-27T01:35:21.739Z,990.86
2019-01-27T01:36:21.732Z,990.84
2019-01-27T01:37:21.731Z,990.86
2019-01-27T01:38:21.712Z,990.85
2019-01-27T01:39:21.718Z,990.84
2019-01-27T01:40:21.689Z,990.81
2019-01-27T01:41:21.679Z,990.76
2019-01-27T01:42:21.684Z,990.68
2019-01-27T01:43:21.664Z,990.71
2019-01-27T01:44:21.672Z,990.67
2019-01-27T01:45:21.643Z,990.62
2019-01-27T01:46:21.639Z,990.58
2019-01-27T01:47:21.617Z,990.54
2019-01-27T01:48:21.615Z,990.48
2019-01-27T01:49:21.617Z,990.54
2019-01-27T01:50:21.601Z,990.42
2019-01-27T01:51:21.573Z,990.44
2019-01-27T01:52:21.582Z,990.40
2019-01-27T01:53:21.562Z,990.37
2019-01-27T01:54:21.592Z,990.37
2019-01-27T01:55:21.547Z,990.33
2019-01-27T01:56:21.523Z,990.37
2019-01-27T01:57:21.524Z,990.32
2019-01-27T01:58:21.510Z,990.33
2019-01-27T01:59:21.523Z,990.31
2019-01-27T02:00:21.487Z,990.25
2019-01-27T02:01:21.482Z,990.25
2019-01-27T02:02:21.483Z,990.21
2019-01-27T02:03:21.455Z,990.23
2019-01-27T02:04:21.459Z,990.20
2019-01-27T02:05:21.431Z,990.21
2019-01-27T02:06:21.426Z,990.16
2019-01-27T02:07:21.411Z,990.17
2019-01-27T02:08:21.409Z,990.14
2019-01-27T02:09:21.419Z,990.09
2019-01-27T02:10:21.376Z,990.09
2019-01-27T02:11:21.367Z,990.04
2019-01-27T02:12:21.371Z,990.04
2019-01-27T02:13:21.365Z,990.06
2019-01-27T02:14:21.353Z,990.07
2019-01-27T02:15:21.329Z,990.02
2019-01-27T02:16:21.317Z,989.95
2019-01-27T02:17:21.304Z,990.00
2019-01-27T02:18:21.299Z,989.91
2019-01-27T02:19:21.305Z,989.95
2019-01-27T02:20:21.297Z,989.90
2019-01-27T02:21:21.272Z,989.93
2019-01-27T02:22:21.255Z,989.88
2019-01-27T02:23:21.247Z,989.76
2019-01-27T02:24:21.247Z,989.86
2019-01-27T02:25:21.229Z,989.75
2019-01-27T02:26:21.218Z,989.72
2019-01-27T02:27:21.223Z,989.73
2019-01-27T02:28:21.190Z,989.73
2019-01-27T02:29:21.208Z,989.70
2019-01-27T02:30:21.185Z,989.65
2019-01-27T02:31:21.158Z,989.68
2019-01-27T02:32:21.154Z,989.59
2019-01-27T02:33:21.146Z,989.56
2019-01-27T02:34:21.156Z,989.59
2019-01-27T02:35:21.114Z,989.58
2019-01-27T02:36:21.110Z,989.59
2019-01-27T02:37:21.106Z,989.54
2019-01-27T02:38:21.087Z,989.51
2019-01-27T02:39:21.123Z,989.58
2019-01-27T02:40:21.071Z,989.47
2019-01-27T02:41:21.054Z,989.54
2019-01-27T02:42:21.039Z,989.53
2019-01-27T02:43:21.035Z,989.55
2019-01-27T02:44:21.034Z,989.45
2019-01-27T02:45:21.031Z,989.43
2019-01-27T02:46:21.002Z,989.45
2019-01-27T02:47:21.040Z,989.32
2019-01-27T02:48:21.002Z,989.36
2019-01-27T02:49:20.995Z,989.35
2019-01-27T02:50:20.978Z,989.35
2019-01-27T02:51:20.973Z,989.28
2019-01-27T02:52:20.944Z,989.32
2019-01-27T02:53:20.948Z,989.21
2019-01-27T02:54:20.935Z,989.18
2019-01-27T02:55:20.923Z,989.23
2019-01-27T02:56:20.953Z,989.12
2019-01-27T02:57:20.908Z,989.14
2019-01-27T02:58:20.877Z,989.13
2019-01-27T02:59:20.875Z,989.13
2019-01-27T03:00:20.892Z,989.13
2019-01-27T03:01:20.856Z,989.11
2019-01-27T03:02:20.850Z,989.07
2019-01-27T03:03:20.843Z,989.09
2019-01-27T03:04:20.820Z,989.06
2019-01-27T03:05:20.822Z,989.01
2019-01-27T03:06:20.801Z,989.00
2019-01-27T03:07:20.791Z,989.02
2019-01-27T03:08:20.788Z,988.93
2019-01-27T03:09:20.756Z,988.91
2019-01-27T03:10:20.761Z,988.86
2019-01-27T03:11:20.755Z,988.86
2019-01-27T03:12:20.732Z,988.85
2019-01-27T03:13:20.732Z,988.87
2019-01-27T03:14:20.719Z,988.81
2019-01-27T03:15:20.732Z,988.75
2019-01-27T03:16:20.703Z,988.75
2019-01-27T03:17:20.690Z,988.70
2019-01-27T03:18:20.675Z,988.66
2019-01-27T03:19:20.669Z,988.65
2019-01-27T03:20:20.665Z,988.66
2019-01-27T03:21:27.671Z,988.66
2019-01-27T03:22:20.628Z,988.69
2019-01-27T03:23:20.608Z,988.65
2019-01-27T03:24:20.615Z,988.71
2019-01-27T03:25:27.677Z,988.65
2019-01-27T03:26:28.633Z,988.64
2019-01-27T03:27:28.205Z,988.67
2019-01-27T03:28:28.622Z,988.68
2019-01-27T03:29:20.551Z,988.63
2019-01-27T03:30:27.657Z,988.65
2019-01-27T03:31:29.298Z,988.64
2019-01-27T03:32:28.579Z,988.72
2019-01-27T03:33:27.569Z,988.59
2019-01-27T03:34:27.565Z,988.66
2019-01-27T03:36:31.141Z,988.58
2019-01-27T03:37:31.110Z,988.59
2019-01-27T03:38:31.093Z,988.57
2019-01-27T03:39:31.084Z,988.58
2019-01-27T03:40:31.083Z,988.58
2019-01-27T03:41:31.048Z,988.59
2019-01-27T03:42:31.054Z,988.49
2019-01-27T03:43:31.051Z,988.52
2019-01-27T03:44:31.026Z,988.49
2019-01-27T03:45:31.022Z,988.45
2019-01-27T03:46:30.999Z,988.45
2019-01-27T03:47:30.991Z,988.41
2019-01-27T03:48:30.992Z,988.42
2019-01-27T03:49:30.972Z,988.42
2019-01-27T03:50:30.987Z,988.42
2019-01-27T03:51:30.943Z,988.42
2019-01-27T03:52:30.934Z,988.33
2019-01-27T03:53:30.926Z,988.26
2019-01-27T03:54:30.918Z,988.27
2019-01-27T03:55:30.925Z,988.25
2019-01-27T03:56:30.899Z,988.17
2019-01-27T03:57:30.881Z,988.19
2019-01-27T03:58:30.870Z,988.19
2019-01-27T03:59:30.873Z,988.21
2019-01-27T04:00:30.887Z,988.17
2019-01-27T04:01:30.853Z,988.11
2019-01-27T04:02:30.830Z,988.12
2019-01-27T04:03:30.828Z,988.11
2019-01-27T04:04:30.804Z,988.13
2019-01-27T04:05:30.822Z,988.02
2019-01-27T04:06:30.793Z,987.99
2019-01-27T04:07:30.778Z,988.03
2019-01-27T04:08:30.775Z,987.92
2019-01-27T04:09:30.765Z,987.94
2019-01-27T04:10:30.763Z,987.95
2019-01-27T04:11:30.735Z,987.95
2019-01-27T04:12:30.732Z,987.87
2019-01-27T04:13:30.745Z,987.95
2019-01-27T04:14:30.713Z,987.89
2019-01-27T04:15:30.707Z,987.89
2019-01-27T04:16:30.679Z,987.86
2019-01-27T04:17:30.685Z,987.88
2019-01-27T04:18:30.666Z,987.86
2019-01-27T04:19:30.678Z,987.83
2019-01-27T04:20:30.667Z,987.69
2019-01-27T04:21:30.638Z,987.79
2019-01-27T04:22:30.616Z,987.74
2019-01-27T04:23:30.630Z,987.74
2019-01-27T04:24:30.599Z,987.72
2019-01-27T04:25:30.617Z,987.69
2019-01-27T04:26:30.592Z,987.65
2019-01-27T04:27:30.588Z,987.61
2019-01-27T04:28:30.569Z,987.65
2019-01-27T04:29:30.548Z,987.62
2019-01-27T04:30:30.559Z,987.63
2019-01-27T04:31:30.543Z,987.63
2019-01-27T04:32:30.523Z,987.62
2019-01-27T04:33:30.529Z,987.52
2019-01-27T04:34:30.504Z,987.61
2019-01-27T04:35:30.528Z,987.59
2019-01-27T04:36:30.479Z,987.62
2019-01-27T04:37:30.483Z,987.59
2019-01-27T04:38:30.462Z,987.63
2019-01-27T04:39:30.468Z,987.57
2019-01-27T04:40:30.449Z,987.56
2019-01-27T04:41:30.483Z,987.46
2019-01-27T04:42:30.423Z,987.47
2019-01-27T04:43:30.404Z,987.51
2019-01-27T04:44:30.409Z,987.50
2019-01-27T04:45:30.420Z,987.51
2019-01-27T04:46:30.365Z,987.44
2019-01-27T04:47:30.360Z,987.50
2019-01-27T04:48:30.356Z,987.40
2019-01-27T04:49:30.343Z,987.43
2019-01-27T04:50:30.345Z,987.37
2019-01-27T04:51:30.323Z,987.44
2019-01-27T04:52:30.321Z,987.41
2019-01-27T04:53:30.293Z,987.35
2019-01-27T04:54:30.287Z,987.33
2019-01-27T04:55:30.300Z,987.25
2019-01-27T04:56:30.271Z,987.34
2019-01-27T04:57:30.251Z,987.44
2019-01-27T04:58:30.247Z,987.26
2019-01-27T04:59:30.227Z,987.35
2019-01-27T05:00:30.246Z,987.35
2019-01-27T05:01:30.224Z,987.32
2019-01-27T05:02:30.211Z,987.30
2019-01-27T05:03:30.203Z,987.30
2019-01-27T05:04:30.190Z,987.31
2019-01-27T05:05:30.202Z,987.30
2019-01-27T05:06:30.168Z,987.25
2019-01-27T05:07:30.165Z,987.22
2019-01-27T05:08:30.146Z,987.22
2019-01-27T05:09:30.126Z,987.22
2019-01-27T05:10:30.140Z,987.16
2019-01-27T05:11:30.132Z,987.18
2019-01-27T05:12:30.108Z,987.17
2019-01-27T05:13:30.089Z,987.08
2019-01-27T05:14:30.079Z,987.03
2019-01-27T05:15:30.064Z,987.03
2019-01-27T05:16:30.072Z,987.10
2019-01-27T05:17:30.047Z,987.09
2019-01-27T05:18:30.034Z,987.00
2019-01-27T05:19:30.025Z,987.00
2019-01-27T05:20:30.013Z,986.90
2019-01-27T05:21:30.022Z,986.93
2019-01-27T05:22:30.024Z,986.91
2019-01-27T05:23:29.989Z,986.95
2019-01-27T05:24:29.969Z,986.94
2019-01-27T05:25:29.975Z,986.98
2019-01-27T05:26:29.991Z,986.86
2019-01-27T05:27:29.943Z,986.87
2019-01-27T05:28:29.927Z,986.84
2019-01-27T05:29:29.919Z,986.89
2019-01-27T05:30:29.903Z,986.88
2019-01-27T05:31:29.909Z,986.89
2019-01-27T05:32:29.969Z,986.86
2019-01-27T05:33:29.879Z,986.80
2019-01-27T05:34:29.869Z,986.80
2019-01-27T05:35:29.865Z,986.75
2019-01-27T05:36:29.866Z,986.79
2019-01-27T05:37:29.834Z,986.74
2019-01-27T05:38:29.827Z,986.72
2019-01-27T05:39:29.815Z,986.71
2019-01-27T05:40:29.803Z,986.61
2019-01-27T05:41:29.808Z,986.73
2019-01-27T05:42:29.783Z,986.71
2019-01-27T05:43:29.777Z,986.63
2019-01-27T05:44:29.767Z,986.60
2019-01-27T05:45:29.751Z,986.62
2019-01-27T05:46:37.819Z,986.57
2019-01-27T05:47:29.740Z,986.59
2019-01-27T05:48:29.735Z,986.51
2019-01-27T05:49:29.733Z,986.57
2019-01-27T05:50:29.699Z,986.57
2019-01-27T05:51:30.025Z,986.66
2019-01-27T05:52:29.684Z,986.61
2019-01-27T05:53:29.682Z,986.52
2019-01-27T05:54:29.684Z,986.55
2019-01-27T05:55:29.649Z,986.53
2019-01-27T05:56:29.658Z,986.51
2019-01-27T05:57:29.642Z,986.46
2019-01-27T05:58:29.622Z,986.48
2019-01-27T05:59:29.609Z,986.54
2019-01-27T06:00:29.610Z,986.58
2019-01-27T06:01:29.598Z,986.51
2019-01-27T06:02:29.581Z,986.54
2019-01-27T06:03:29.573Z,986.55
2019-01-27T06:04:29.575Z,986.55
2019-01-27T06:05:29.547Z,986.50
2019-01-27T06:06:29.562Z,986.47
2019-01-27T06:07:29.522Z,986.49
2019-01-27T06:08:29.508Z,986.47
2019-01-27T06:09:29.502Z,986.51
2019-01-27T06:10:29.502Z,986.40
2019-01-27T06:11:29.487Z,986.44
2019-01-27T06:12:29.467Z,986.36
2019-01-27T06:13:29.451Z,986.42
2019-01-27T06:14:29.448Z,986.36
2019-01-27T06:15:29.462Z,986.31
2019-01-27T06:16:29.444Z,986.33
2019-01-27T06:17:29.409Z,986.25
2019-01-27T06:18:29.414Z,986.29
2019-01-27T06:19:29.402Z,986.16
2019-01-27T06:20:29.384Z,986.15
2019-01-27T06:21:29.412Z,986.20
2019-01-27T06:22:29.366Z,986.18
2019-01-27T06:23:29.352Z,986.16
2019-01-27T06:24:29.349Z,986.17
2019-01-27T06:25:29.343Z,986.12
2019-01-27T06:26:29.382Z,986.24
2019-01-27T06:27:29.326Z,986.12
2019-01-27T06:28:29.299Z,986.14
2019-01-27T06:29:29.292Z,986.06
2019-01-27T06:30:29.288Z,986.05
2019-01-27T06:31:29.287Z,986.06
2019-01-27T06:32:29.266Z,986.00
2019-01-27T06:33:29.258Z,986.04
2019-01-27T06:34:29.257Z,986.06
2019-01-27T06:35:29.257Z,986.03
2019-01-27T06:36:29.525Z,986.00
2019-01-27T06:37:29.207Z,985.99
2019-01-27T06:38:29.195Z,985.98
2019-01-27T06:39:29.187Z,986.01
2019-01-27T06:40:29.177Z,986.04
2019-01-27T06:41:29.178Z,986.00
2019-01-27T06:42:29.179Z,985.99
2019-01-27T06:43:29.141Z,985.98
2019-01-27T06:44:29.134Z,985.93
2019-01-27T06:45:29.121Z,985.96
2019-01-27T06:46:29.128Z,985.91
2019-01-27T06:47:29.110Z,985.97
2019-01-27T06:48:29.111Z,985.88
2019-01-27T06:49:29.084Z,985.98
2019-01-27T06:50:29.061Z,985.87
2019-01-27T06:51:29.075Z,985.88
2019-01-27T06:52:29.061Z,985.87
2019-01-27T06:53:29.057Z,985.88
2019-01-27T06:54:29.028Z,985.90
2019-01-27T06:55:29.033Z,985.90
2019-01-27T06:56:29.025Z,985.92
2019-01-27T06:57:28.994Z,985.92
2019-01-27T06:58:28.988Z,985.94
2019-01-27T06:59:28.971Z,985.88
2019-01-27T07:00:28.958Z,985.93
2019-01-27T07:01:28.962Z,985.84
2019-01-27T07:02:29.651Z,985.82
2019-01-27T07:03:28.934Z,985.77
2019-01-27T07:04:28.938Z,985.80
2019-01-27T07:05:28.913Z,985.78
2019-01-27T07:06:28.918Z,985.81
2019-01-27T07:07:28.894Z,985.83
2019-01-27T07:08:28.886Z,985.76
2019-01-27T07:09:28.877Z,985.81
2019-01-27T07:10:28.867Z,985.76
2019-01-27T07:11:28.875Z,985.71
2019-01-27T07:12:28.829Z,985.67
2019-01-27T07:13:28.830Z,985.66
2019-01-27T07:14:28.820Z,985.64
2019-01-27T07:15:28.806Z,985.65
2019-01-27T07:16:28.801Z,985.65
2019-01-27T07:17:28.804Z,985.67
2019-01-27T07:18:28.773Z,985.60
2019-01-27T07:19:28.767Z,985.65
2019-01-27T07:20:28.767Z,985.62
2019-01-27T07:21:28.741Z,985.59
2019-01-27T07:22:28.777Z,985.60
2019-01-27T07:23:36.761Z,985.57
2019-01-27T07:24:35.775Z,985.58
2019-01-27T07:25:28.708Z,985.54
2019-01-27T07:26:28.696Z,985.62
2019-01-27T07:27:28.697Z,985.61
2019-01-27T07:28:28.694Z,985.64
2019-01-27T07:29:28.678Z,985.59
2019-01-27T07:30:28.663Z,985.58
2019-01-27T07:31:28.636Z,985.55
2019-01-27T07:32:28.643Z,985.56
2019-01-27T07:33:28.641Z,985.49
2019-01-27T07:34:28.616Z,985.49
2019-01-27T07:35:28.594Z,985.52
2019-01-27T07:36:28.586Z,985.50
2019-01-27T07:37:28.600Z,985.51
2019-01-27T07:38:28.586Z,985.48
2019-01-27T07:39:28.561Z,985.42
2019-01-27T07:40:28.551Z,985.44
2019-01-27T07:41:28.546Z,985.47
2019-01-27T07:42:28.533Z,985.46
2019-01-27T07:43:28.512Z,985.33
2019-01-27T07:44:28.527Z,985.40
2019-01-27T07:45:28.493Z,985.39
2019-01-27T07:46:28.502Z,985.36
2019-01-27T07:47:28.497Z,985.39
2019-01-27T07:48:28.468Z,985.43
2019-01-27T07:49:28.446Z,985.41
2019-01-27T07:50:28.448Z,985.42
2019-01-27T07:51:28.438Z,985.35
2019-01-27T07:52:28.444Z,985.34
2019-01-27T07:53:28.407Z,985.38
2019-01-27T07:54:28.407Z,985.30
2019-01-27T07:55:28.382Z,985.26
2019-01-27T07:56:28.373Z,985.32
2019-01-27T07:57:28.375Z,985.28
2019-01-27T07:58:28.362Z,985.26
2019-01-27T07:59:28.343Z,985.25
2019-01-27T08:00:28.329Z,985.25
2019-01-27T08:01:28.321Z,985.17
2019-01-27T08:02:28.333Z,985.17
2019-01-27T08:03:28.316Z,985.19
2019-01-27T08:04:28.296Z,985.09
2019-01-27T08:05:28.277Z,985.18
2019-01-27T08:06:28.282Z,985.13
2019-01-27T08:07:28.273Z,985.11
2019-01-27T08:08:28.256Z,985.16
2019-01-27T08:09:28.262Z,985.08
2019-01-27T08:10:28.235Z,985.15
2019-01-27T08:11:28.227Z,985.16
2019-01-27T08:12:28.230Z,985.19
2019-01-27T08:13:28.212Z,985.17
2019-01-27T08:14:28.196Z,985.09
2019-01-27T08:15:28.192Z,985.08
2019-01-27T08:16:28.167Z,985.04
2019-01-27T08:17:28.166Z,985.07
2019-01-27T08:18:28.152Z,985.08
2019-01-27T08:19:28.136Z,984.99
2019-01-27T08:20:28.134Z,985.13
2019-01-27T08:21:28.117Z,985.05
2019-01-27T08:22:28.114Z,985.09
2019-01-27T08:23:28.094Z,985.05
2019-01-27T08:24:28.080Z,985.05
2019-01-27T08:25:28.078Z,985.05
2019-01-27T08:26:28.085Z,985.03
2019-01-27T08:27:28.073Z,985.04
2019-01-27T08:28:28.037Z,984.90
2019-01-27T08:29:28.035Z,984.90
2019-01-27T08:30:28.023Z,984.93
2019-01-27T08:31:28.025Z,984.90
2019-01-27T08:32:28.028Z,984.95
2019-01-27T08:33:27.995Z,984.93
2019-01-27T08:34:27.987Z,984.92
2019-01-27T08:35:27.973Z,984.89
2019-01-27T08:36:27.965Z,984.82
2019-01-27T08:37:27.963Z,984.87
2019-01-27T08:38:27.937Z,984.89
2019-01-27T08:39:27.934Z,984.88
2019-01-27T08:40:27.913Z,984.88
2019-01-27T08:41:27.913Z,984.83
2019-01-27T08:42:27.919Z,984.85
2019-01-27T08:43:27.889Z,984.86
2019-01-27T08:44:35.912Z,984.80
2019-01-27T08:45:36.138Z,984.81
2019-01-27T08:46:27.844Z,984.82
2019-01-27T08:47:27.852Z,984.80
2019-01-27T08:48:27.847Z,984.85
2019-01-27T08:49:27.817Z,984.86
2019-01-27T08:50:27.805Z,984.86
2019-01-27T08:51:27.812Z,984.82
2019-01-27T08:52:27.817Z,984.79
2019-01-27T08:53:27.817Z,984.75
2019-01-27T08:54:27.773Z,984.87
2019-01-27T08:55:27.752Z,984.88
2019-01-27T08:56:27.748Z,984.79
2019-01-27T08:57:27.753Z,984.78
2019-01-27T08:58:27.724Z,984.78
2019-01-27T08:59:27.744Z,984.74
2019-01-27T09:00:27.720Z,984.80
2019-01-27T09:01:27.700Z,984.88
2019-01-27T09:02:27.702Z,984.85
2019-01-27T09:03:27.684Z,984.74
2019-01-27T09:04:27.679Z,984.67
2019-01-27T09:05:27.671Z,984.71
2019-01-27T09:06:27.639Z,984.73
2019-01-27T09:07:27.639Z,984.80
2019-01-27T09:08:27.629Z,984.77
2019-01-27T09:09:27.604Z,984.74
2019-01-27T09:10:27.613Z,984.72
2019-01-27T09:11:27.603Z,984.62
2019-01-27T09:12:27.594Z,984.67
2019-01-27T09:13:27.566Z,984.66
2019-01-27T09:14:27.565Z,984.63
2019-01-27T09:15:27.545Z,984.57
2019-01-27T09:16:27.545Z,984.59
2019-01-27T09:17:34.610Z,984.46
2019-01-27T09:18:27.534Z,984.47
2019-01-27T09:19:27.517Z,984.46
2019-01-27T09:20:28.141Z,984.35
2019-01-27T09:21:27.477Z,984.43
2019-01-27T09:22:27.497Z,984.50
2019-01-27T09:23:27.461Z,984.50
2019-01-27T09:24:27.490Z,984.43
2019-01-27T09:25:27.540Z,984.45
2019-01-27T09:26:27.436Z,984.44
2019-01-27T09:27:27.424Z,984.40
2019-01-27T09:28:27.427Z,984.38
2019-01-27T09:29:27.408Z,984.39
2019-01-27T09:30:27.427Z,984.33
2019-01-27T09:31:27.370Z,984.33
2019-01-27T09:32:27.384Z,984.35
2019-01-27T09:33:27.363Z,984.43
2019-01-27T09:34:27.345Z,984.36
2019-01-27T09:35:27.333Z,984.35
2019-01-27T09:36:27.331Z,984.35
2019-01-27T09:37:27.310Z,984.35
2019-01-27T09:38:27.314Z,984.32
2019-01-27T09:39:27.297Z,984.32
2019-01-27T09:40:27.290Z,984.23
2019-01-27T09:41:27.279Z,984.31
2019-01-27T09:42:27.280Z,984.28
2019-01-27T09:43:28.911Z,984.28
2019-01-27T09:44:27.244Z,984.36
2019-01-27T09:45:27.222Z,984.34
2019-01-27T09:46:27.220Z,984.31
2019-01-27T09:47:27.213Z,984.33
2019-01-27T09:48:27.218Z,984.31
2019-01-27T09:49:27.183Z,984.20
2019-01-27T09:50:27.189Z,984.22
2019-01-27T09:51:27.872Z,984.25
2019-01-27T09:52:27.159Z,984.27
2019-01-27T09:53:27.168Z,984.21
2019-01-27T09:54:27.151Z,984.11
2019-01-27T09:55:27.128Z,984.18
2019-01-27T09:56:27.113Z,984.20
2019-01-27T09:57:27.122Z,984.24
2019-01-27T09:58:27.109Z,984.24
2019-01-27T09:59:27.089Z,984.22
2019-01-27T10:00:27.071Z,984.12
2019-01-27T10:01:27.065Z,984.04
2019-01-27T10:02:27.050Z,984.14
2019-01-27T10:03:27.059Z,984.12
2019-01-27T10:04:27.038Z,984.07
2019-01-27T10:05:27.025Z,984.14
2019-01-27T10:06:27.035Z,984.05
2019-01-27T10:07:27.014Z,984.10
2019-01-27T10:08:27.020Z,983.96
2019-01-27T10:09:26.972Z,984.07
2019-01-27T10:10:26.959Z,984.03
2019-01-27T10:11:26.958Z,984.01
2019-01-27T10:12:26.968Z,984.09
2019-01-27T10:13:26.968Z,984.08
2019-01-27T10:14:26.927Z,984.07
2019-01-27T10:15:26.921Z,984.10
2019-01-27T10:16:26.912Z,984.06
2019-01-27T10:17:26.897Z,984.07
2019-01-27T10:18:26.916Z,984.05
2019-01-27T10:19:26.878Z,983.97
2019-01-27T10:20:26.858Z,983.97
2019-01-27T10:21:26.872Z,983.94
2019-01-27T10:22:27.668Z,983.97
2019-01-27T10:23:26.838Z,983.97
2019-01-27T10:24:26.831Z,984.00
2019-01-27T10:25:26.815Z,983.95
2019-01-27T10:26:26.806Z,983.93
2019-01-27T10:27:26.791Z,983.97
2019-01-27T10:28:26.810Z,983.90
2019-01-27T10:29:26.786Z,983.83
2019-01-27T10:30:26.773Z,983.85
2019-01-27T10:31:26.784Z,983.85
2019-01-27T10:32:26.740Z,983.82
2019-01-27T10:33:26.773Z,983.84
2019-01-27T10:34:26.725Z,983.78
2019-01-27T10:35:26.729Z,983.77
2019-01-27T10:36:26.711Z,983.72
2019-01-27T10:37:26.691Z,983.74
2019-01-27T10:38:26.693Z,983.68
2019-01-27T10:39:26.664Z,983.75
2019-01-27T10:40:26.657Z,983.75
2019-01-27T10:41:26.650Z,983.68
2019-01-27T10:42:26.650Z,983.62
2019-01-27T10:43:26.650Z,983.75
2019-01-27T10:44:26.616Z,983.74
2019-01-27T10:45:26.606Z,983.70
2019-01-27T10:46:26.593Z,983.68
2019-01-27T10:47:26.581Z,983.69
2019-01-27T10:48:26.587Z,983.63
2019-01-27T10:49:26.557Z,983.64
2019-01-27T10:50:26.558Z,983.71
2019-01-27T10:51:26.544Z,983.69
2019-01-27T10:52:26.520Z,983.64
2019-01-27T10:53:26.532Z,983.64
2019-01-27T10:54:26.509Z,983.65
2019-01-27T10:55:26.484Z,983.65
2019-01-27T10:56:26.473Z,983.63
2019-01-27T10:57:26.474Z,983.56
2019-01-27T10:58:26.484Z,983.61
2019-01-27T10:59:26.440Z,983.52
2019-01-27T11:00:26.440Z,983.53
2019-01-27T11:01:26.447Z,983.51
2019-01-27T11:02:26.429Z,983.45
2019-01-27T11:03:26.418Z,983.38
2019-01-27T11:04:26.391Z,983.46
2019-01-27T11:05:26.390Z,983.40
2019-01-27T11:06:34.439Z,983.34
2019-01-27T11:07:26.364Z,983.36
2019-01-27T11:08:26.362Z,983.38
2019-01-27T11:09:26.344Z,983.37
2019-01-27T11:10:34.426Z,983.29
2019-01-27T11:11:26.323Z,983.33
2019-01-27T11:12:26.326Z,983.27
2019-01-27T11:13:26.327Z,983.30
2019-01-27T11:14:33.339Z,983.29
2019-01-27T11:15:26.308Z,983.31
2019-01-27T11:16:26.278Z,983.33
2019-01-27T11:17:26.251Z,983.28
2019-01-27T11:18:27.241Z,983.30
2019-01-27T11:19:26.243Z,983.34
2019-01-27T11:20:26.228Z,983.34
2019-01-27T11:21:26.211Z,983.35
2019-01-27T11:22:26.474Z,983.31
2019-01-27T11:23:26.247Z,983.33
2019-01-27T11:24:26.197Z,983.21
2019-01-27T11:25:26.185Z,983.26
2019-01-27T11:26:26.163Z,983.25
2019-01-27T11:27:32.831Z,983.22
2019-01-27T11:28:27.170Z,983.16
2019-01-27T11:29:26.129Z,983.10
2019-01-27T11:30:26.128Z,983.19
2019-01-27T11:31:26.125Z,983.07
2019-01-27T11:32:26.101Z,983.02
2019-01-27T11:33:26.103Z,983.08
2019-01-27T11:34:26.096Z,983.04
2019-01-27T11:35:26.070Z,983.10
2019-01-27T11:36:26.068Z,983.10
2019-01-27T11:37:26.057Z,983.03
2019-01-27T11:38:26.047Z,983.02
2019-01-27T11:39:26.054Z,983.04
2019-01-27T11:40:26.022Z,982.99
2019-01-27T11:41:26.014Z,982.97
2019-01-27T11:42:26.011Z,982.96
2019-01-27T11:43:25.994Z,982.98
2019-01-27T11:44:25.982Z,982.95
2019-01-27T11:45:26.057Z,982.93
2019-01-27T11:46:25.979Z,982.83
2019-01-27T11:47:25.941Z,982.83
2019-01-27T11:48:25.989Z,982.86
2019-01-27T11:49:25.956Z,982.79
2019-01-27T11:50:25.914Z,982.80
2019-01-27T11:51:25.922Z,982.85
2019-01-27T11:52:25.898Z,982.85
2019-01-27T11:53:25.894Z,982.81
2019-01-27T11:54:25.901Z,982.82
2019-01-27T11:55:25.863Z,982.83
2019-01-27T11:56:25.851Z,982.77
2019-01-27T11:57:25.833Z,982.82
2019-01-27T11:58:25.826Z,982.81
2019-01-27T11:59:25.831Z,982.80
2019-01-27T12:00:25.803Z,982.76
2019-01-27T12:01:25.801Z,982.78
2019-01-27T12:02:25.793Z,982.75
2019-01-27T12:03:25.780Z,982.74
2019-01-27T12:04:25.771Z,982.74
2019-01-27T12:05:25.759Z,982.70
2019-01-27T12:06:25.747Z,982.74
2019-01-27T12:07:25.731Z,982.64
2019-01-27T12:08:25.719Z,982.65
2019-01-27T12:09:25.717Z,982.65
2019-01-27T12:10:25.694Z,982.60
2019-01-27T12:11:25.696Z,982.64
2019-01-27T12:12:25.674Z,982.60
2019-01-27T12:13:25.655Z,982.58
2019-01-27T12:14:25.662Z,982.56
2019-01-27T12:15:25.655Z,982.62
2019-01-27T12:16:25.650Z,982.53
2019-01-27T12:17:25.633Z,982.54
2019-01-27T12:18:25.615Z,982.48
2019-01-27T12:19:25.622Z,982.49
2019-01-27T12:20:25.586Z,982.60
2019-01-27T12:21:25.594Z,982.58
2019-01-27T12:22:25.580Z,982.57
2019-01-27T12:23:25.568Z,982.54
2019-01-27T12:24:25.577Z,982.52
2019-01-27T12:25:25.550Z,982.52
2019-01-27T12:26:25.545Z,982.50
2019-01-27T12:27:25.529Z,982.59
2019-01-27T12:28:25.516Z,982.55
2019-01-27T12:29:25.653Z,982.55